sensor_id;sensor_type;location;lat;lon;timestamp;P1;durP1;ratioP1;P2;durP2;ratioP2
5285;SDS011;2665;53.112;7.358;2022-07-23T00:01:30;2.50;;;1.87;;
5285;SDS011;2665;53.112;7.358;2022-07-23T00:03:56;3.70;;;1.70;;
5285;SDS011;2665;53.112;7.358;2022-07-23T00:06:22;2.53;;;1.70;;
5285;SDS011;2665;53.112;7.358;2022-07-23T00:08:48;2.70;;;1.77;;
5285;SDS011;2665;53.112;7.358;2022-07-23T00:11:14;3.60;;;2.03;;
5285;SDS011;2665;53.112;7.358;2022-07-23T00:13:39;3.63;;;1.50;;
5285;SDS011;2665;53.112;7.358;2022-07-23T00:16:05;3.17;;;2.10;;
5285;SDS011;2665;53.112;7.358;2022-07-23T00:18:31;3.60;;;2.00;;
5285;SDS011;2665;53.112;7.358;2022-07-23T00:20:57;6.07;;;2.03;;
5285;SDS011;2665;53.112;7.358;2022-07-23T00:23:22;3.33;;;1.87;;
5285;SDS011;2665;53.112;7.358;2022-07-23T00:25:49;2.97;;;1.90;;
5285;SDS011;2665;53.112;7.358;2022-07-23T00:28:16;5.43;;;2.00;;
5285;SDS011;2665;53.112;7.358;2022-07-23T00:30:43;5.07;;;2.40;;
5285;SDS011;2665;53.112;7.358;2022-07-23T00:33:09;3.57;;;2.13;;
5285;SDS011;2665;53.112;7.358;2022-07-23T00:35:37;3.20;;;2.37;;
5285;SDS011;2665;53.112;7.358;2022-07-23T00:38:08;3.27;;;2.07;;
5285;SDS011;2665;53.112;7.358;2022-07-23T00:40:35;2.97;;;2.10;;
5285;SDS011;2665;53.112;7.358;2022-07-23T00:43:01;3.63;;;1.60;;
5285;SDS011;2665;53.112;7.358;2022-07-23T00:45:27;2.70;;;1.73;;
5285;SDS011;2665;53.112;7.358;2022-07-23T00:47:53;4.00;;;2.73;;
5285;SDS011;2665;53.112;7.358;2022-07-23T00:50:19;7.80;;;2.43;;
5285;SDS011;2665;53.112;7.358;2022-07-23T00:52:44;6.00;;;2.70;;
5285;SDS011;2665;53.112;7.358;2022-07-23T00:55:10;4.63;;;1.80;;
5285;SDS011;2665;53.112;7.358;2022-07-23T00:57:37;3.97;;;1.97;;
5285;SDS011;2665;53.112;7.358;2022-07-23T01:00:04;4.53;;;2.50;;
5285;SDS011;2665;53.112;7.358;2022-07-23T01:02:31;3.50;;;2.17;;
5285;SDS011;2665;53.112;7.358;2022-07-23T01:04:58;7.60;;;2.27;;
5285;SDS011;2665;53.112;7.358;2022-07-23T01:07:23;2.77;;;1.77;;
5285;SDS011;2665;53.112;7.358;2022-07-23T01:09:50;3.80;;;2.20;;
5285;SDS011;2665;53.112;7.358;2022-07-23T01:12:16;3.53;;;2.30;;
5285;SDS011;2665;53.112;7.358;2022-07-23T01:14:42;5.80;;;2.00;;
5285;SDS011;2665;53.112;7.358;2022-07-23T01:17:08;2.47;;;1.60;;
5285;SDS011;2665;53.112;7.358;2022-07-23T01:19:33;3.57;;;2.00;;
5285;SDS011;2665;53.112;7.358;2022-07-23T01:22:01;3.10;;;1.73;;
5285;SDS011;2665;53.112;7.358;2022-07-23T01:24:28;5.10;;;2.43;;
5285;SDS011;2665;53.112;7.358;2022-07-23T01:26:54;4.40;;;2.00;;
5285;SDS011;2665;53.112;7.358;2022-07-23T01:29:20;5.50;;;1.80;;
5285;SDS011;2665;53.112;7.358;2022-07-23T01:31:46;4.10;;;2.70;;
5285;SDS011;2665;53.112;7.358;2022-07-23T01:34:12;3.77;;;2.20;;
5285;SDS011;2665;53.112;7.358;2022-07-23T01:36:38;3.80;;;2.23;;
5285;SDS011;2665;53.112;7.358;2022-07-23T01:39:04;8.10;;;2.40;;
5285;SDS011;2665;53.112;7.358;2022-07-23T01:41:31;3.50;;;2.70;;
5285;SDS011;2665;53.112;7.358;2022-07-23T01:43:56;3.73;;;2.30;;
5285;SDS011;2665;53.112;7.358;2022-07-23T01:46:22;4.30;;;2.10;;
5285;SDS011;2665;53.112;7.358;2022-07-23T01:48:48;3.50;;;1.80;;
5285;SDS011;2665;53.112;7.358;2022-07-23T01:51:14;3.90;;;2.53;;
5285;SDS011;2665;53.112;7.358;2022-07-23T01:53:39;4.63;;;2.30;;
5285;SDS011;2665;53.112;7.358;2022-07-23T01:56:05;3.07;;;2.30;;
5285;SDS011;2665;53.112;7.358;2022-07-23T01:58:31;3.87;;;2.50;;
5285;SDS011;2665;53.112;7.358;2022-07-23T02:00:57;4.80;;;2.37;;
5285;SDS011;2665;53.112;7.358;2022-07-23T02:03:23;3.30;;;2.43;;
5285;SDS011;2665;53.112;7.358;2022-07-23T02:05:49;3.37;;;2.20;;
5285;SDS011;2665;53.112;7.358;2022-07-23T02:08:15;5.33;;;2.23;;
5285;SDS011;2665;53.112;7.358;2022-07-23T02:10:42;3.30;;;2.13;;
5285;SDS011;2665;53.112;7.358;2022-07-23T02:13:07;3.23;;;2.50;;
5285;SDS011;2665;53.112;7.358;2022-07-23T02:15:33;3.23;;;2.23;;
5285;SDS011;2665;53.112;7.358;2022-07-23T02:17:59;5.83;;;2.20;;
5285;SDS011;2665;53.112;7.358;2022-07-23T02:20:24;4.07;;;2.60;;
5285;SDS011;2665;53.112;7.358;2022-07-23T02:22:50;3.70;;;2.50;;
5285;SDS011;2665;53.112;7.358;2022-07-23T02:25:16;3.20;;;2.37;;
5285;SDS011;2665;53.112;7.358;2022-07-23T02:27:41;4.10;;;2.77;;
5285;SDS011;2665;53.112;7.358;2022-07-23T02:30:07;3.30;;;2.10;;
5285;SDS011;2665;53.112;7.358;2022-07-23T02:32:34;3.60;;;2.70;;
5285;SDS011;2665;53.112;7.358;2022-07-23T02:35:00;3.00;;;2.30;;
5285;SDS011;2665;53.112;7.358;2022-07-23T02:37:26;3.17;;;2.20;;
5285;SDS011;2665;53.112;7.358;2022-07-23T02:39:51;3.97;;;2.80;;
5285;SDS011;2665;53.112;7.358;2022-07-23T02:42:17;2.90;;;1.80;;
5285;SDS011;2665;53.112;7.358;2022-07-23T02:44:43;4.40;;;1.97;;
5285;SDS011;2665;53.112;7.358;2022-07-23T02:47:08;4.47;;;2.50;;
5285;SDS011;2665;53.112;7.358;2022-07-23T02:49:34;3.33;;;2.67;;
5285;SDS011;2665;53.112;7.358;2022-07-23T02:52:00;5.50;;;2.53;;
5285;SDS011;2665;53.112;7.358;2022-07-23T02:54:25;6.70;;;2.30;;
5285;SDS011;2665;53.112;7.358;2022-07-23T02:56:51;4.00;;;2.50;;
5285;SDS011;2665;53.112;7.358;2022-07-23T02:59:17;3.50;;;2.30;;
5285;SDS011;2665;53.112;7.358;2022-07-23T03:01:43;4.50;;;2.30;;
5285;SDS011;2665;53.112;7.358;2022-07-23T03:04:09;3.53;;;2.27;;
5285;SDS011;2665;53.112;7.358;2022-07-23T03:06:34;3.30;;;2.40;;
5285;SDS011;2665;53.112;7.358;2022-07-23T03:09:00;3.03;;;2.23;;
5285;SDS011;2665;53.112;7.358;2022-07-23T03:11:26;3.70;;;2.23;;
5285;SDS011;2665;53.112;7.358;2022-07-23T03:13:51;4.47;;;2.50;;
5285;SDS011;2665;53.112;7.358;2022-07-23T03:16:17;4.40;;;2.13;;
5285;SDS011;2665;53.112;7.358;2022-07-23T03:18:43;3.80;;;2.13;;
5285;SDS011;2665;53.112;7.358;2022-07-23T03:21:08;3.40;;;2.30;;
5285;SDS011;2665;53.112;7.358;2022-07-23T03:23:34;3.33;;;2.20;;
5285;SDS011;2665;53.112;7.358;2022-07-23T03:26:00;3.43;;;2.50;;
5285;SDS011;2665;53.112;7.358;2022-07-23T03:28:25;6.00;;;2.80;;
5285;SDS011;2665;53.112;7.358;2022-07-23T03:30:51;5.80;;;3.10;;
5285;SDS011;2665;53.112;7.358;2022-07-23T03:33:17;4.10;;;2.83;;
5285;SDS011;2665;53.112;7.358;2022-07-23T03:35:44;5.77;;;2.73;;
5285;SDS011;2665;53.112;7.358;2022-07-23T03:38:11;4.67;;;2.70;;
5285;SDS011;2665;53.112;7.358;2022-07-23T03:40:38;5.00;;;2.53;;
5285;SDS011;2665;53.112;7.358;2022-07-23T03:43:03;3.87;;;2.83;;
5285;SDS011;2665;53.112;7.358;2022-07-23T03:45:29;4.40;;;2.67;;
5285;SDS011;2665;53.112;7.358;2022-07-23T03:47:55;4.03;;;2.47;;
5285;SDS011;2665;53.112;7.358;2022-07-23T03:50:21;4.03;;;2.73;;
5285;SDS011;2665;53.112;7.358;2022-07-23T03:52:47;5.73;;;3.43;;
5285;SDS011;2665;53.112;7.358;2022-07-23T03:55:13;4.13;;;3.30;;
5285;SDS011;2665;53.112;7.358;2022-07-23T03:57:38;6.73;;;2.60;;
5285;SDS011;2665;53.112;7.358;2022-07-23T04:00:05;4.97;;;3.03;;
5285;SDS011;2665;53.112;7.358;2022-07-23T04:02:33;4.00;;;2.67;;
5285;SDS011;2665;53.112;7.358;2022-07-23T04:04:58;7.10;;;2.50;;
5285;SDS011;2665;53.112;7.358;2022-07-23T04:07:25;5.03;;;3.30;;
5285;SDS011;2665;53.112;7.358;2022-07-23T04:09:51;4.43;;;2.90;;
5285;SDS011;2665;53.112;7.358;2022-07-23T04:12:16;4.80;;;2.70;;
5285;SDS011;2665;53.112;7.358;2022-07-23T04:14:42;3.53;;;2.43;;
5285;SDS011;2665;53.112;7.358;2022-07-23T04:17:08;6.63;;;2.80;;
5285;SDS011;2665;53.112;7.358;2022-07-23T04:19:33;3.17;;;2.33;;
5285;SDS011;2665;53.112;7.358;2022-07-23T04:22:04;7.50;;;3.07;;
5285;SDS011;2665;53.112;7.358;2022-07-23T04:24:30;5.30;;;3.00;;
5285;SDS011;2665;53.112;7.358;2022-07-23T04:26:56;4.73;;;2.47;;
5285;SDS011;2665;53.112;7.358;2022-07-23T04:29:21;6.80;;;2.93;;
5285;SDS011;2665;53.112;7.358;2022-07-23T04:31:47;4.20;;;2.63;;
5285;SDS011;2665;53.112;7.358;2022-07-23T04:34:12;7.00;;;2.80;;
5285;SDS011;2665;53.112;7.358;2022-07-23T04:36:38;3.70;;;2.70;;
5285;SDS011;2665;53.112;7.358;2022-07-23T04:39:04;4.33;;;2.63;;
5285;SDS011;2665;53.112;7.358;2022-07-23T04:41:29;3.20;;;2.40;;
5285;SDS011;2665;53.112;7.358;2022-07-23T04:43:55;4.90;;;2.50;;
5285;SDS011;2665;53.112;7.358;2022-07-23T04:46:21;3.73;;;2.30;;
5285;SDS011;2665;53.112;7.358;2022-07-23T04:48:46;3.03;;;2.00;;
5285;SDS011;2665;53.112;7.358;2022-07-23T04:51:12;3.47;;;1.90;;
5285;SDS011;2665;53.112;7.358;2022-07-23T04:53:38;3.80;;;2.60;;
5285;SDS011;2665;53.112;7.358;2022-07-23T04:56:03;4.33;;;2.50;;
5285;SDS011;2665;53.112;7.358;2022-07-23T04:58:29;5.60;;;3.00;;
5285;SDS011;2665;53.112;7.358;2022-07-23T05:00:56;4.50;;;2.70;;
5285;SDS011;2665;53.112;7.358;2022-07-23T05:03:22;4.10;;;2.77;;
5285;SDS011;2665;53.112;7.358;2022-07-23T05:05:48;3.43;;;2.50;;
5285;SDS011;2665;53.112;7.358;2022-07-23T05:08:14;4.40;;;2.80;;
5285;SDS011;2665;53.112;7.358;2022-07-23T05:10:40;5.70;;;2.67;;
5285;SDS011;2665;53.112;7.358;2022-07-23T05:13:05;6.47;;;3.07;;
5285;SDS011;2665;53.112;7.358;2022-07-23T05:15:31;4.47;;;3.50;;
5285;SDS011;2665;53.112;7.358;2022-07-23T05:17:57;4.90;;;2.13;;
5285;SDS011;2665;53.112;7.358;2022-07-23T05:20:22;4.57;;;2.60;;
5285;SDS011;2665;53.112;7.358;2022-07-23T05:22:48;7.60;;;1.97;;
5285;SDS011;2665;53.112;7.358;2022-07-23T05:25:13;4.70;;;3.13;;
5285;SDS011;2665;53.112;7.358;2022-07-23T05:27:39;5.33;;;2.37;;
5285;SDS011;2665;53.112;7.358;2022-07-23T05:30:05;7.33;;;2.70;;
5285;SDS011;2665;53.112;7.358;2022-07-23T05:32:31;6.23;;;2.87;;
5285;SDS011;2665;53.112;7.358;2022-07-23T05:34:57;5.43;;;3.17;;
5285;SDS011;2665;53.112;7.358;2022-07-23T05:37:23;6.23;;;3.27;;
5285;SDS011;2665;53.112;7.358;2022-07-23T05:39:49;10.80;;;3.47;;
5285;SDS011;2665;53.112;7.358;2022-07-23T05:42:14;7.30;;;2.87;;
5285;SDS011;2665;53.112;7.358;2022-07-23T05:44:40;5.57;;;2.70;;
5285;SDS011;2665;53.112;7.358;2022-07-23T05:47:05;4.30;;;3.20;;
5285;SDS011;2665;53.112;7.358;2022-07-23T05:49:31;4.90;;;3.27;;
5285;SDS011;2665;53.112;7.358;2022-07-23T05:51:56;6.43;;;3.43;;
5285;SDS011;2665;53.112;7.358;2022-07-23T05:54:22;3.70;;;2.80;;
5285;SDS011;2665;53.112;7.358;2022-07-23T05:56:48;7.30;;;2.60;;
5285;SDS011;2665;53.112;7.358;2022-07-23T05:59:15;6.40;;;3.70;;
5285;SDS011;2665;53.112;7.358;2022-07-23T06:01:40;4.03;;;2.60;;
5285;SDS011;2665;53.112;7.358;2022-07-23T06:04:06;3.60;;;2.97;;
5285;SDS011;2665;53.112;7.358;2022-07-23T06:06:32;3.70;;;2.30;;
5285;SDS011;2665;53.112;7.358;2022-07-23T06:08:58;5.03;;;2.43;;
5285;SDS011;2665;53.112;7.358;2022-07-23T06:11:23;3.30;;;2.70;;
5285;SDS011;2665;53.112;7.358;2022-07-23T06:13:49;6.50;;;2.90;;
5285;SDS011;2665;53.112;7.358;2022-07-23T06:16:15;5.07;;;2.60;;
5285;SDS011;2665;53.112;7.358;2022-07-23T06:18:40;4.20;;;2.03;;
5285;SDS011;2665;53.112;7.358;2022-07-23T06:21:06;3.20;;;2.10;;
5285;SDS011;2665;53.112;7.358;2022-07-23T06:23:31;5.60;;;2.20;;
5285;SDS011;2665;53.112;7.358;2022-07-23T06:25:57;3.57;;;2.30;;
5285;SDS011;2665;53.112;7.358;2022-07-23T06:28:23;4.87;;;2.03;;
5285;SDS011;2665;53.112;7.358;2022-07-23T06:30:48;2.97;;;1.60;;
5285;SDS011;2665;53.112;7.358;2022-07-23T06:33:14;4.57;;;2.30;;
5285;SDS011;2665;53.112;7.358;2022-07-23T06:35:39;2.83;;;1.90;;
5285;SDS011;2665;53.112;7.358;2022-07-23T06:38:05;3.60;;;2.23;;
5285;SDS011;2665;53.112;7.358;2022-07-23T06:40:30;3.00;;;1.90;;
5285;SDS011;2665;53.112;7.358;2022-07-23T06:42:56;5.30;;;2.50;;
5285;SDS011;2665;53.112;7.358;2022-07-23T06:45:22;6.83;;;2.13;;
5285;SDS011;2665;53.112;7.358;2022-07-23T06:47:47;7.00;;;2.87;;
5285;SDS011;2665;53.112;7.358;2022-07-23T06:50:13;3.43;;;2.23;;
5285;SDS011;2665;53.112;7.358;2022-07-23T06:52:39;3.37;;;2.23;;
5285;SDS011;2665;53.112;7.358;2022-07-23T06:55:04;3.83;;;1.80;;
5285;SDS011;2665;53.112;7.358;2022-07-23T06:57:30;4.00;;;2.00;;
5285;SDS011;2665;53.112;7.358;2022-07-23T06:59:56;2.53;;;1.63;;
5285;SDS011;2665;53.112;7.358;2022-07-23T07:02:21;5.70;;;2.30;;
5285;SDS011;2665;53.112;7.358;2022-07-23T07:04:47;2.73;;;1.50;;
5285;SDS011;2665;53.112;7.358;2022-07-23T07:07:13;6.10;;;1.93;;
5285;SDS011;2665;53.112;7.358;2022-07-23T07:09:39;2.97;;;1.73;;
5285;SDS011;2665;53.112;7.358;2022-07-23T07:12:04;2.30;;;1.40;;
5285;SDS011;2665;53.112;7.358;2022-07-23T07:14:30;2.97;;;1.63;;
5285;SDS011;2665;53.112;7.358;2022-07-23T07:16:56;3.30;;;1.43;;
5285;SDS011;2665;53.112;7.358;2022-07-23T07:19:21;5.07;;;1.60;;
5285;SDS011;2665;53.112;7.358;2022-07-23T07:21:47;2.57;;;1.20;;
5285;SDS011;2665;53.112;7.358;2022-07-23T07:24:13;3.60;;;1.43;;
5285;SDS011;2665;53.112;7.358;2022-07-23T07:26:38;2.23;;;1.30;;
5285;SDS011;2665;53.112;7.358;2022-07-23T07:29:05;2.23;;;1.10;;
5285;SDS011;2665;53.112;7.358;2022-07-23T07:31:31;6.00;;;1.47;;
5285;SDS011;2665;53.112;7.358;2022-07-23T07:33:57;2.60;;;1.40;;
5285;SDS011;2665;53.112;7.358;2022-07-23T07:36:23;2.60;;;1.20;;
5285;SDS011;2665;53.112;7.358;2022-07-23T07:38:49;4.07;;;1.43;;
5285;SDS011;2665;53.112;7.358;2022-07-23T07:41:16;2.30;;;1.00;;
5285;SDS011;2665;53.112;7.358;2022-07-23T07:43:41;2.13;;;1.20;;
5285;SDS011;2665;53.112;7.358;2022-07-23T07:46:07;3.23;;;1.07;;
5285;SDS011;2665;53.112;7.358;2022-07-23T07:48:36;2.00;;;0.90;;
5285;SDS011;2665;53.112;7.358;2022-07-23T07:51:03;2.90;;;0.83;;
5285;SDS011;2665;53.112;7.358;2022-07-23T07:53:29;3.07;;;0.90;;
5285;SDS011;2665;53.112;7.358;2022-07-23T07:55:54;3.97;;;1.20;;
5285;SDS011;2665;53.112;7.358;2022-07-23T07:58:20;3.33;;;1.27;;
5285;SDS011;2665;53.112;7.358;2022-07-23T08:00:46;1.70;;;0.60;;
5285;SDS011;2665;53.112;7.358;2022-07-23T08:03:11;1.80;;;0.80;;
5285;SDS011;2665;53.112;7.358;2022-07-23T08:05:37;1.83;;;0.60;;
5285;SDS011;2665;53.112;7.358;2022-07-23T08:08:03;1.90;;;0.80;;
5285;SDS011;2665;53.112;7.358;2022-07-23T08:10:29;1.60;;;0.50;;
5285;SDS011;2665;53.112;7.358;2022-07-23T08:12:56;1.80;;;0.60;;
5285;SDS011;2665;53.112;7.358;2022-07-23T08:15:23;1.60;;;0.53;;
5285;SDS011;2665;53.112;7.358;2022-07-23T08:17:49;1.70;;;0.57;;
5285;SDS011;2665;53.112;7.358;2022-07-23T08:20:16;1.70;;;0.60;;
5285;SDS011;2665;53.112;7.358;2022-07-23T08:22:49;1.70;;;0.80;;
5285;SDS011;2665;53.112;7.358;2022-07-23T08:25:26;1.87;;;0.60;;
5285;SDS011;2665;53.112;7.358;2022-07-23T08:27:53;2.00;;;0.80;;
5285;SDS011;2665;53.112;7.358;2022-07-23T08:30:20;1.80;;;0.50;;
5285;SDS011;2665;53.112;7.358;2022-07-23T08:32:56;2.70;;;0.67;;
5285;SDS011;2665;53.112;7.358;2022-07-23T08:38:01;5.00;;;0.70;;
5285;SDS011;2665;53.112;7.358;2022-07-23T08:40:29;2.60;;;0.80;;
5285;SDS011;2665;53.112;7.358;2022-07-23T08:42:56;1.60;;;0.60;;
5285;SDS011;2665;53.112;7.358;2022-07-23T08:45:23;2.37;;;0.70;;
5285;SDS011;2665;53.112;7.358;2022-07-23T08:47:51;2.67;;;0.77;;
5285;SDS011;2665;53.112;7.358;2022-07-23T08:50:21;1.77;;;0.70;;
5285;SDS011;2665;53.112;7.358;2022-07-23T08:52:48;1.87;;;0.70;;
5285;SDS011;2665;53.112;7.358;2022-07-23T08:55:19;2.90;;;0.80;;
5285;SDS011;2665;53.112;7.358;2022-07-23T08:57:47;1.80;;;0.70;;
5285;SDS011;2665;53.112;7.358;2022-07-23T09:00:14;2.77;;;0.73;;
5285;SDS011;2665;53.112;7.358;2022-07-23T09:02:42;1.60;;;0.50;;
5285;SDS011;2665;53.112;7.358;2022-07-23T09:05:12;1.70;;;0.60;;
5285;SDS011;2665;53.112;7.358;2022-07-23T09:08:02;1.90;;;0.60;;
5285;SDS011;2665;53.112;7.358;2022-07-23T09:10:57;1.70;;;0.60;;
5285;SDS011;2665;53.112;7.358;2022-07-23T09:15:52;2.43;;;0.60;;
5285;SDS011;2665;53.112;7.358;2022-07-23T09:18:19;1.80;;;0.57;;
5285;SDS011;2665;53.112;7.358;2022-07-23T09:20:58;2.47;;;0.83;;
5285;SDS011;2665;53.112;7.358;2022-07-23T09:23:58;2.00;;;0.60;;
5285;SDS011;2665;53.112;7.358;2022-07-23T09:26:32;1.80;;;0.60;;
5285;SDS011;2665;53.112;7.358;2022-07-23T09:29:04;5.93;;;0.97;;
5285;SDS011;2665;53.112;7.358;2022-07-23T09:31:34;1.80;;;0.70;;
5285;SDS011;2665;53.112;7.358;2022-07-23T09:34:16;1.87;;;0.70;;
5285;SDS011;2665;53.112;7.358;2022-07-23T09:36:48;1.80;;;0.50;;
5285;SDS011;2665;53.112;7.358;2022-07-23T09:39:15;1.80;;;0.70;;
5285;SDS011;2665;53.112;7.358;2022-07-23T09:41:47;4.10;;;0.90;;
5285;SDS011;2665;53.112;7.358;2022-07-23T09:44:16;3.97;;;0.70;;
5285;SDS011;2665;53.112;7.358;2022-07-23T09:46:47;1.60;;;0.60;;
5285;SDS011;2665;53.112;7.358;2022-07-23T09:49:18;1.60;;;0.50;;
5285;SDS011;2665;53.112;7.358;2022-07-23T09:51:53;3.07;;;0.70;;
5285;SDS011;2665;53.112;7.358;2022-07-23T09:56:53;1.60;;;0.50;;
5285;SDS011;2665;53.112;7.358;2022-07-23T09:59:22;1.70;;;0.60;;
5285;SDS011;2665;53.112;7.358;2022-07-23T10:01:50;1.80;;;0.70;;
5285;SDS011;2665;53.112;7.358;2022-07-23T10:04:18;1.70;;;0.50;;
5285;SDS011;2665;53.112;7.358;2022-07-23T10:06:46;1.60;;;0.57;;
5285;SDS011;2665;53.112;7.358;2022-07-23T10:09:12;3.33;;;0.90;;
5285;SDS011;2665;53.112;7.358;2022-07-23T10:11:41;1.70;;;0.60;;
5285;SDS011;2665;53.112;7.358;2022-07-23T10:14:07;1.70;;;0.50;;
5285;SDS011;2665;53.112;7.358;2022-07-23T10:16:33;1.60;;;0.50;;
5285;SDS011;2665;53.112;7.358;2022-07-23T10:18:58;1.60;;;0.50;;
5285;SDS011;2665;53.112;7.358;2022-07-23T10:21:33;1.80;;;0.60;;
5285;SDS011;2665;53.112;7.358;2022-07-23T10:24:07;1.50;;;0.50;;
5285;SDS011;2665;53.112;7.358;2022-07-23T10:37:31;4.37;;;1.47;;
5285;SDS011;2665;53.112;7.358;2022-07-23T10:40:08;1.97;;;0.60;;
5285;SDS011;2665;53.112;7.358;2022-07-23T10:42:39;1.60;;;0.53;;
5285;SDS011;2665;53.112;7.358;2022-07-23T10:45:25;2.90;;;0.80;;
5285;SDS011;2665;53.112;7.358;2022-07-23T10:47:52;1.90;;;0.60;;
5285;SDS011;2665;53.112;7.358;2022-07-23T10:50:28;1.70;;;0.60;;
5285;SDS011;2665;53.112;7.358;2022-07-23T10:58:03;1.67;;;0.63;;
5285;SDS011;2665;53.112;7.358;2022-07-23T11:00:30;1.87;;;0.60;;
5285;SDS011;2665;53.112;7.358;2022-07-23T11:02:59;5.40;;;0.70;;
5285;SDS011;2665;53.112;7.358;2022-07-23T11:36:58;1.83;;;0.70;;
5285;SDS011;2665;53.112;7.358;2022-07-23T11:39:26;2.00;;;0.70;;
5285;SDS011;2665;53.112;7.358;2022-07-23T11:41:52;1.80;;;0.70;;
5285;SDS011;2665;53.112;7.358;2022-07-23T11:44:27;2.63;;;0.70;;
5285;SDS011;2665;53.112;7.358;2022-07-23T11:46:57;1.90;;;0.63;;
5285;SDS011;2665;53.112;7.358;2022-07-23T11:49:24;1.70;;;0.70;;
5285;SDS011;2665;53.112;7.358;2022-07-23T11:54:37;1.90;;;0.50;;
5285;SDS011;2665;53.112;7.358;2022-07-23T11:57:20;1.80;;;0.50;;
5285;SDS011;2665;53.112;7.358;2022-07-23T11:59:51;1.80;;;0.60;;
5285;SDS011;2665;53.112;7.358;2022-07-23T12:02:20;2.77;;;0.50;;
5285;SDS011;2665;53.112;7.358;2022-07-23T12:04:47;2.20;;;0.60;;
5285;SDS011;2665;53.112;7.358;2022-07-23T12:07:24;2.37;;;0.50;;
5285;SDS011;2665;53.112;7.358;2022-07-23T12:09:55;2.63;;;0.50;;
5285;SDS011;2665;53.112;7.358;2022-07-23T12:12:22;1.87;;;1.17;;
5285;SDS011;2665;53.112;7.358;2022-07-23T12:14:53;1.73;;;0.60;;
5285;SDS011;2665;53.112;7.358;2022-07-23T12:17:21;1.77;;;0.50;;
5285;SDS011;2665;53.112;7.358;2022-07-23T12:19:51;1.80;;;0.60;;
5285;SDS011;2665;53.112;7.358;2022-07-23T12:22:17;1.50;;;0.50;;
5285;SDS011;2665;53.112;7.358;2022-07-23T12:24:56;1.60;;;0.50;;
5285;SDS011;2665;53.112;7.358;2022-07-23T12:27:23;2.10;;;0.50;;
5285;SDS011;2665;53.112;7.358;2022-07-23T12:29:49;2.30;;;0.67;;
5285;SDS011;2665;53.112;7.358;2022-07-23T12:32:22;2.00;;;0.70;;
5285;SDS011;2665;53.112;7.358;2022-07-23T12:35:03;1.90;;;0.60;;
5285;SDS011;2665;53.112;7.358;2022-07-23T12:37:30;1.67;;;0.60;;
5285;SDS011;2665;53.112;7.358;2022-07-23T12:45:25;1.43;;;0.50;;
5285;SDS011;2665;53.112;7.358;2022-07-23T12:50:37;1.40;;;0.50;;
5285;SDS011;2665;53.112;7.358;2022-07-23T12:53:06;1.63;;;0.70;;
5285;SDS011;2665;53.112;7.358;2022-07-23T12:55:40;1.63;;;0.70;;
5285;SDS011;2665;53.112;7.358;2022-07-23T13:00:52;1.93;;;0.70;;
5285;SDS011;2665;53.112;7.358;2022-07-23T13:03:54;1.57;;;0.67;;
5285;SDS011;2665;53.112;7.358;2022-07-23T13:06:19;2.27;;;0.73;;
5285;SDS011;2665;53.112;7.358;2022-07-23T13:08:45;2.53;;;0.87;;
5285;SDS011;2665;53.112;7.358;2022-07-23T13:11:10;1.93;;;0.97;;
5285;SDS011;2665;53.112;7.358;2022-07-23T13:13:36;5.20;;;0.70;;
5285;SDS011;2665;53.112;7.358;2022-07-23T13:16:01;1.70;;;0.77;;
5285;SDS011;2665;53.112;7.358;2022-07-23T13:18:28;1.70;;;0.80;;
5285;SDS011;2665;53.112;7.358;2022-07-23T13:20:54;1.57;;;0.60;;
5285;SDS011;2665;53.112;7.358;2022-07-23T13:23:20;1.77;;;0.77;;
5285;SDS011;2665;53.112;7.358;2022-07-23T13:25:46;1.93;;;0.90;;
5285;SDS011;2665;53.112;7.358;2022-07-23T13:28:13;2.80;;;0.90;;
5285;SDS011;2665;53.112;7.358;2022-07-23T13:30:40;1.67;;;0.70;;
5285;SDS011;2665;53.112;7.358;2022-07-23T13:33:07;2.90;;;0.80;;
5285;SDS011;2665;53.112;7.358;2022-07-23T13:35:34;2.67;;;0.80;;
5285;SDS011;2665;53.112;7.358;2022-07-23T13:38:01;3.00;;;1.10;;
5285;SDS011;2665;53.112;7.358;2022-07-23T13:40:27;2.30;;;0.83;;
5285;SDS011;2665;53.112;7.358;2022-07-23T13:42:53;3.30;;;0.97;;
5285;SDS011;2665;53.112;7.358;2022-07-23T13:45:19;2.10;;;1.00;;
5285;SDS011;2665;53.112;7.358;2022-07-23T13:47:45;2.27;;;0.80;;
5285;SDS011;2665;53.112;7.358;2022-07-23T13:50:10;1.90;;;0.83;;
5285;SDS011;2665;53.112;7.358;2022-07-23T13:52:36;3.23;;;0.67;;
5285;SDS011;2665;53.112;7.358;2022-07-23T13:55:03;2.60;;;0.80;;
5285;SDS011;2665;53.112;7.358;2022-07-23T13:57:30;2.40;;;0.70;;
5285;SDS011;2665;53.112;7.358;2022-07-23T13:59:56;1.67;;;0.80;;
5285;SDS011;2665;53.112;7.358;2022-07-23T14:02:22;2.10;;;0.77;;
5285;SDS011;2665;53.112;7.358;2022-07-23T14:04:48;1.90;;;1.00;;
5285;SDS011;2665;53.112;7.358;2022-07-23T14:07:14;1.93;;;0.80;;
5285;SDS011;2665;53.112;7.358;2022-07-23T14:09:41;2.00;;;0.90;;
5285;SDS011;2665;53.112;7.358;2022-07-23T14:12:07;2.07;;;0.80;;
5285;SDS011;2665;53.112;7.358;2022-07-23T14:14:33;2.13;;;1.00;;
5285;SDS011;2665;53.112;7.358;2022-07-23T14:16:58;4.73;;;0.90;;
5285;SDS011;2665;53.112;7.358;2022-07-23T14:19:24;2.30;;;0.70;;
5285;SDS011;2665;53.112;7.358;2022-07-23T14:21:49;4.33;;;0.80;;
5285;SDS011;2665;53.112;7.358;2022-07-23T14:24:15;1.60;;;0.70;;
5285;SDS011;2665;53.112;7.358;2022-07-23T14:26:41;1.90;;;0.80;;
5285;SDS011;2665;53.112;7.358;2022-07-23T14:29:07;1.50;;;0.63;;
5285;SDS011;2665;53.112;7.358;2022-07-23T14:31:33;1.60;;;0.60;;
5285;SDS011;2665;53.112;7.358;2022-07-23T14:34:00;2.00;;;0.80;;
5285;SDS011;2665;53.112;7.358;2022-07-23T14:36:25;1.97;;;0.80;;
5285;SDS011;2665;53.112;7.358;2022-07-23T14:38:51;1.50;;;0.60;;
5285;SDS011;2665;53.112;7.358;2022-07-23T14:41:17;3.77;;;0.93;;
5285;SDS011;2665;53.112;7.358;2022-07-23T14:43:43;2.93;;;0.80;;
5285;SDS011;2665;53.112;7.358;2022-07-23T14:46:09;2.53;;;0.80;;
5285;SDS011;2665;53.112;7.358;2022-07-23T14:48:36;2.27;;;0.60;;
5285;SDS011;2665;53.112;7.358;2022-07-23T14:51:02;1.90;;;0.70;;
5285;SDS011;2665;53.112;7.358;2022-07-23T14:53:28;2.37;;;0.80;;
5285;SDS011;2665;53.112;7.358;2022-07-23T14:55:54;1.50;;;0.60;;
5285;SDS011;2665;53.112;7.358;2022-07-23T14:58:21;2.00;;;0.97;;
5285;SDS011;2665;53.112;7.358;2022-07-23T15:00:48;1.73;;;0.57;;
5285;SDS011;2665;53.112;7.358;2022-07-23T15:03:14;1.60;;;0.60;;
5285;SDS011;2665;53.112;7.358;2022-07-23T15:05:39;2.00;;;0.67;;
5285;SDS011;2665;53.112;7.358;2022-07-23T15:08:05;1.53;;;0.63;;
5285;SDS011;2665;53.112;7.358;2022-07-23T15:10:30;1.40;;;0.50;;
5285;SDS011;2665;53.112;7.358;2022-07-23T15:12:56;1.50;;;0.70;;
5285;SDS011;2665;53.112;7.358;2022-07-23T15:15:21;1.83;;;0.70;;
5285;SDS011;2665;53.112;7.358;2022-07-23T15:17:47;1.50;;;0.70;;
5285;SDS011;2665;53.112;7.358;2022-07-23T15:20:13;2.40;;;0.50;;
5285;SDS011;2665;53.112;7.358;2022-07-23T15:22:39;3.40;;;0.80;;
5285;SDS011;2665;53.112;7.358;2022-07-23T15:25:04;1.97;;;0.80;;
5285;SDS011;2665;53.112;7.358;2022-07-23T15:27:31;1.97;;;0.63;;
5285;SDS011;2665;53.112;7.358;2022-07-23T15:29:56;3.93;;;1.07;;
5285;SDS011;2665;53.112;7.358;2022-07-23T15:32:22;1.70;;;0.80;;
5285;SDS011;2665;53.112;7.358;2022-07-23T15:34:51;1.67;;;0.70;;
5285;SDS011;2665;53.112;7.358;2022-07-23T15:37:17;1.70;;;0.80;;
5285;SDS011;2665;53.112;7.358;2022-07-23T15:39:42;2.37;;;0.80;;
5285;SDS011;2665;53.112;7.358;2022-07-23T15:42:08;1.50;;;0.60;;
5285;SDS011;2665;53.112;7.358;2022-07-23T15:44:34;2.73;;;0.90;;
5285;SDS011;2665;53.112;7.358;2022-07-23T15:46:59;2.53;;;0.77;;
5285;SDS011;2665;53.112;7.358;2022-07-23T15:49:26;2.53;;;1.57;;
5285;SDS011;2665;53.112;7.358;2022-07-23T15:51:52;2.50;;;0.80;;
5285;SDS011;2665;53.112;7.358;2022-07-23T15:54:19;2.60;;;0.80;;
5285;SDS011;2665;53.112;7.358;2022-07-23T15:56:45;2.93;;;1.00;;
5285;SDS011;2665;53.112;7.358;2022-07-23T15:59:11;2.00;;;1.00;;
5285;SDS011;2665;53.112;7.358;2022-07-23T16:01:36;2.50;;;0.50;;
5285;SDS011;2665;53.112;7.358;2022-07-23T16:04:02;1.70;;;0.70;;
5285;SDS011;2665;53.112;7.358;2022-07-23T16:06:28;1.40;;;0.70;;
5285;SDS011;2665;53.112;7.358;2022-07-23T16:08:54;1.50;;;0.60;;
5285;SDS011;2665;53.112;7.358;2022-07-23T16:11:19;3.00;;;0.77;;
5285;SDS011;2665;53.112;7.358;2022-07-23T16:13:45;1.97;;;0.80;;
5285;SDS011;2665;53.112;7.358;2022-07-23T16:16:10;1.50;;;0.60;;
5285;SDS011;2665;53.112;7.358;2022-07-23T16:18:37;3.03;;;0.70;;
5285;SDS011;2665;53.112;7.358;2022-07-23T16:21:03;2.03;;;0.70;;
5285;SDS011;2665;53.112;7.358;2022-07-23T16:23:29;2.67;;;0.70;;